Time;durP1;ratioP1;P1;durP2;ratioP2;P2;SDS_P1;SDS_P2;PMS_P1;PMS_P2;Temp;Humidity;BMP_temperature;BMP_pressure;BME280_temperature;BME280_humidity;BME280_pressure;Samples;Min_cycle;Max_cycle;Signal;HPM_P1;HPM_P2
2022/08/09 00:01:59;;;;;;;9.60;5.97;;;;;;;17.29;66.68;102428.41;1731423;82;21028;-91
2022/08/09 00:04:26;;;;;;;7.47;5.70;;;;;;;17.19;66.83;102415.73;1726966;82;21071;-91
2022/08/09 00:06:54;;;;;;;9.05;6.40;;;;;;;17.26;66.92;102435.87;1736358;82;21091;-82
2022/08/09 00:09:21;;;;;;;11.73;6.58;;;;;;;17.24;67.02;102436.70;1728538;82;21801;-82
2022/08/09 00:11:47;;;;;;;11.90;6.20;;;;;;;17.21;67.03;102433.55;1730953;82;21051;-83
2022/08/09 00:14:14;;;;;;;11.60;6.55;;;;;;;17.22;67.12;102431.34;1737156;81;21048;-82
2022/08/09 00:16:41;;;;;;;9.98;6.37;;;;;;;17.24;67.29;102428.28;1723029;81;21032;-84
2022/08/09 00:19:08;;;;;;;9.40;6.30;;;;;;;17.26;67.39;102425.66;1747156;81;21138;-82
2022/08/09 00:21:37;;;;;;;8.60;6.92;;;;;;;17.25;67.60;102430.09;1739656;82;21790;-91
2022/08/09 00:24:24;;;;;;;9.75;7.05;;;;;;;17.26;67.71;102426.55;1740458;82;21565;-91
2022/08/09 00:27:06;;;;;;;11.40;7.12;;;;;;;17.27;67.83;102427.48;1704563;84;21064;-91
2022/08/09 00:29:33;;;;;;;9.43;6.92;;;;;;;17.32;68.04;102420.48;1741434;81;21064;-91
2022/08/09 00:32:05;;;;;;;11.10;6.83;;;;;;;17.34;68.15;102425.84;1704517;83;21598;-91
2022/08/09 00:34:31;;;;;;;9.73;6.80;;;;;;;17.33;68.19;102420.96;1697383;83;21791;-91
2022/08/09 00:36:59;;;;;;;9.63;6.80;;;;;;;17.34;68.25;102414.75;1711092;83;21058;-90
2022/08/09 00:39:25;;;;;;;11.05;7.40;;;;;;;17.36;68.49;102415.72;1711546;83;21023;-90
2022/08/09 00:42:14;;;;;;;8.25;6.92;;;;;;;17.38;68.50;102413.99;1714157;83;21119;-91
2022/08/09 00:44:58;;;;;;;8.43;6.95;;;;;;;17.35;68.38;102413.91;1716832;83;21038;-90
2022/08/09 00:47:31;;;;;;;9.38;6.83;;;;;;;17.32;68.43;102413.83;1717240;83;21732;-91
2022/08/09 00:49:58;;;;;;;9.90;7.07;;;;;;;17.25;68.42;102409.25;1716991;83;20995;-91
2022/08/09 00:52:28;;;;;;;10.78;7.72;;;;;;;17.18;68.41;102402.86;1694264;83;21859;-91
2022/08/09 00:55:17;;;;;;;9.18;6.87;;;;;;;17.12;68.50;102402.72;1717250;83;21026;-90
2022/08/09 00:57:54;;;;;;;9.33;6.92;;;;;;;17.12;68.79;102405.79;1717245;83;21025;-90
2022/08/09 01:03:59;;;;;;;10.30;6.87;;;;;;;17.15;69.20;102407.20;1707044;83;21041;-90
2022/08/09 01:06:40;;;;;;;9.65;7.12;;;;;;;17.13;69.21;102406.27;1704722;83;21010;-91
2022/08/09 01:10:05;;;;;;;9.50;6.62;;;;;;;17.08;69.30;102406.17;1712411;83;21041;-91
2022/08/09 01:13:10;;;;;;;9.73;7.33;;;;;;;17.06;69.51;102407.87;1716803;83;21041;-91
2022/08/09 01:15:41;;;;;;;7.92;7.12;;;;;;;17.05;69.49;102404.31;1688609;84;21712;-90
2022/08/09 01:18:23;;;;;;;12.40;7.20;;;;;;;17.01;69.59;102406.44;1680600;84;21067;-90
2022/08/09 01:21:30;;;;;;;8.35;6.45;;;;;;;17.02;69.80;102408.66;1666651;86;21060;-91
2022/08/09 01:24:06;;;;;;;11.85;6.42;;;;;;;17.04;69.88;102412.25;1666321;85;21123;-91
2022/08/09 01:27:15;;;;;;;9.35;6.50;;;;;;;17.07;69.97;102407.02;1670921;84;21593;-91
2022/08/09 01:30:16;;;;;;;8.45;6.08;;;;;;;17.14;70.03;102404.09;1701074;83;21806;-92
2022/08/09 01:32:44;;;;;;;7.50;6.62;;;;;;;17.17;70.09;102411.69;1701570;83;21155;-91
2022/08/09 01:35:24;;;;;;;8.50;7.00;;;;;;;17.22;70.20;102418.47;1700635;84;21075;-91
2022/08/09 01:38:13;;;;;;;11.83;6.97;;;;;;;17.24;70.20;102410.98;1705372;83;21212;-91
2022/08/09 01:41:08;;;;;;;10.72;6.92;;;;;;;17.23;70.15;102417.19;1705426;84;21039;-91
2022/08/09 01:44:04;;;;;;;10.08;6.15;;;;;;;17.22;70.24;102414.05;1705652;82;21978;-91
2022/08/09 01:47:29;;;;;;;9.40;6.83;;;;;;;17.19;70.28;102413.98;1694155;84;21082;-91
2022/08/09 01:50:15;;;;;;;9.43;6.65;;;;;;;17.15;70.27;102413.86;1716869;82;21620;-92
2022/08/09 01:52:49;;;;;;;9.35;6.85;;;;;;;17.13;70.35;102411.59;1736318;82;21561;-91
2022/08/09 01:55:24;;;;;;;;;;;;;;;17.13;70.45;102412.92;1739044;82;21055;-90
2022/08/09 01:58:10;;;;;;;13.32;6.60;;;;;;;17.14;70.59;102409.42;1740719;82;21779;-89
2022/08/09 02:00:37;;;;;;;10.68;6.00;;;;;;;17.13;70.51;102411.59;1741219;82;21027;-91
2022/08/09 02:03:33;;;;;;;11.55;6.65;;;;;;;17.12;70.63;102405.38;1723553;82;21075;-91
2022/08/09 02:06:11;;;;;;;7.75;6.72;;;;;;;17.13;70.59;102406.27;1690606;83;21052;-91
2022/08/09 02:08:51;;;;;;;11.45;7.58;;;;;;;17.14;70.71;102414.30;1718210;83;21055;-92
2022/08/09 02:11:27;;;;;;;10.40;7.40;;;;;;;17.13;70.67;102411.16;1715723;83;22764;-92
2022/08/09 02:14:14;;;;;;;10.20;6.97;;;;;;;17.14;70.85;102406.31;1727842;82;21055;-91
2022/08/09 02:16:42;;;;;;;9.98;6.83;;;;;;;17.16;70.79;102413.91;1740993;82;21055;-91
2022/08/09 02:19:09;;;;;;;11.20;7.12;;;;;;;17.17;70.87;102413.46;1740688;82;21227;-91
2022/08/09 02:21:39;;;;;;;10.40;6.85;;;;;;;17.19;70.91;102415.73;1704926;84;21087;-91
2022/08/09 02:24:27;;;;;;;10.93;8.40;;;;;;;17.17;70.80;102414.80;1705789;83;22597;-91
2022/08/09 02:26:57;;;;;;;13.10;7.37;;;;;;;17.13;70.77;102411.16;1705164;83;21056;-91
2022/08/09 02:29:26;;;;;;;9.33;7.12;;;;;;;17.13;70.81;102412.48;1683111;84;21059;-91
2022/08/09 02:39:21;;;;;;;;;;;;;;;17.15;71.06;102416.52;1716453;83;21561;-90
2022/08/09 02:42:21;;;;;;;8.23;7.10;;;;;;;17.18;71.18;102417.50;1713826;83;20255;-90
2022/08/09 02:45:04;;;;;;;9.03;7.22;;;;;;;17.16;71.09;102418.34;1729899;82;21070;-91
2022/08/09 02:48:16;;;;;;;10.72;8.13;;;;;;;17.14;71.17;102416.96;1711876;83;21589;-91
2022/08/09 02:51:30;;;;;;;9.63;7.20;;;;;;;17.16;71.22;102415.23;1711873;83;21087;-91
2022/08/09 02:54:06;;;;;;;9.53;7.50;;;;;;;17.16;71.26;102421.88;1706556;83;21729;-91
2022/08/09 02:56:57;;;;;;;7.75;6.78;;;;;;;17.20;71.36;102419.77;1705826;84;21016;-90
2022/08/09 02:59:45;;;;;;;12.55;7.30;;;;;;;17.21;71.32;102421.98;1739954;82;21102;-90
2022/08/09 03:02:14;;;;;;;8.58;7.03;;;;;;;17.19;71.36;102426.37;1741549;82;21059;-90
2022/08/09 03:04:41;;;;;;;8.80;7.22;;;;;;;17.18;71.32;102433.46;1741004;82;21060;-91
2022/08/09 03:07:07;;;;;;;8.00;6.72;;;;;;;17.16;71.42;102431.64;1741365;82;22474;-90
2022/08/09 03:10:25;;;;;;;9.00;6.47;;;;;;;17.15;71.44;102429.83;1741131;82;21051;-90
2022/08/09 03:12:55;;;;;;;9.10;7.30;;;;;;;17.17;71.50;102430.76;1736788;82;21031;-91
2022/08/09 03:15:45;;;;;;;9.40;7.28;;;;;;;17.15;71.47;102429.38;1740086;82;21091;-90
2022/08/09 03:18:26;;;;;;;10.25;7.20;;;;;;;17.11;71.51;102430.17;1681476;84;21030;-91
2022/08/09 03:21:11;;;;;;;7.58;6.67;;;;;;;17.07;71.53;102432.30;1703196;83;22536;-90
2022/08/09 03:24:31;;;;;;;7.83;6.53;;;;;;;17.03;71.65;102434.42;1703100;83;21032;-91
2022/08/09 03:27:46;;;;;;;10.48;6.72;;;;;;;17.04;71.82;102433.13;1705405;84;21021;-91
2022/08/09 03:30:36;;;;;;;15.45;6.60;;;;;;;17.08;71.90;102432.78;1705335;84;21047;-91
2022/08/09 03:33:06;;;;;;;9.38;7.40;;;;;;;17.09;71.88;102434.56;1705199;84;21031;-91
2022/08/09 03:35:34;;;;;;;8.70;6.58;;;;;;;17.06;71.93;102437.13;1729968;82;21894;-91
2022/08/09 03:38:18;;;;;;;8.83;6.65;;;;;;;17.06;71.99;102427.82;1705083;83;21301;-90
2022/08/09 03:41:14;;;;;;;10.18;7.03;;;;;;;17.08;72.06;102437.66;1708688;83;20998;-90
2022/08/09 03:44:08;;;;;;;8.33;6.60;;;;;;;17.12;72.10;102432.40;1716320;83;21005;-90
2022/08/09 03:46:48;;;;;;;9.78;7.45;;;;;;;17.15;72.17;102432.48;1716577;83;21036;-91
2022/08/09 03:49:21;;;;;;;10.13;7.37;;;;;;;17.20;72.17;102430.84;1711105;83;21723;-90
2022/08/09 03:51:51;;;;;;;9.08;7.33;;;;;;;17.23;72.12;102430.49;1711258;83;25936;-90
2022/08/09 03:54:37;;;;;;;10.48;7.33;;;;;;;17.29;72.25;102425.31;1711372;83;21019;-90
2022/08/09 03:57:12;;;;;;;9.60;6.90;;;;;;;17.36;72.16;102429.44;1711107;83;21064;-90
2022/08/09 03:59:40;;;;;;;13.48;7.25;;;;;;;17.43;72.10;102434.94;1730740;82;21067;-82
2022/08/09 04:02:07;;;;;;;8.83;6.90;;;;;;;17.49;72.07;102432.85;1713846;81;21849;-83
2022/08/09 04:04:34;;;;;;;9.85;7.42;;;;;;;17.58;72.11;102430.84;1740893;81;21051;-83
2022/08/09 04:07:01;;;;;;;8.08;6.87;;;;;;;17.66;72.00;102433.23;1724191;81;21051;-82
2022/08/09 04:09:35;;;;;;;13.05;7.65;;;;;;;17.74;71.93;102440.10;1736362;82;21622;-91
2022/08/09 04:12:14;;;;;;;;;;;;;;;17.82;71.83;102439.83;1703210;83;21140;-82
2022/08/09 04:14:41;;;;;;;8.38;6.55;;;;;;;17.83;71.67;102438.94;1743855;81;21940;-92
2022/08/09 04:17:08;;;;;;;13.22;7.67;;;;;;;17.86;71.63;102444.38;1728249;82;21095;-89
2022/08/09 04:19:34;;;;;;;11.33;7.40;;;;;;;17.90;71.58;102447.58;1701451;83;21068;-90
2022/08/09 04:22:04;;;;;;;12.73;7.28;;;;;;;17.96;71.58;102447.73;1694575;84;21100;-89
2022/08/09 04:24:30;;;;;;;12.43;7.90;;;;;;;18.03;71.54;102441.64;1694557;84;22302;-87
2022/08/09 04:26:57;;;;;;;21.90;8.18;;;;;;;18.11;71.45;102444.47;1695794;82;21742;-88
2022/08/09 04:29:24;;;;;;;25.25;9.30;;;;;;;18.19;71.42;102446.87;1702091;82;21098;-83
2022/08/09 04:31:52;;;;;;;17.98;8.75;;;;;;;18.27;71.31;102452.36;1713622;82;21072;-83
2022/08/09 04:34:19;;;;;;;12.13;7.45;;;;;;;18.33;71.19;102451.14;1700229;83;21261;-85
2022/08/09 04:36:46;;;;;;;11.12;7.60;;;;;;;18.34;71.01;102454.70;1704213;83;21095;-83
2022/08/09 04:39:12;;;;;;;11.97;8.20;;;;;;;18.37;70.99;102462.33;1694440;83;21732;-83
2022/08/09 04:41:39;;;;;;;13.43;8.15;;;;;;;18.39;70.94;102452.63;1706525;82;21071;-83
2022/08/09 04:44:10;;;;;;;13.93;7.90;;;;;;;18.41;70.85;102459.30;1706912;82;21592;-83
2022/08/09 04:46:34;;;;;;;14.00;7.37;;;;;;;18.44;70.92;102458.03;1706405;83;21115;-83
2022/08/09 04:49:01;;;;;;;13.28;8.10;;;;;;;18.52;70.88;102462.17;1706092;83;21079;-82
2022/08/09 04:51:28;;;;;;;19.32;8.00;;;;;;;18.55;70.70;102464.91;1707129;83;21793;-85
2022/08/09 04:53:55;;;;;;;21.40;8.40;;;;;;;18.55;70.58;102464.47;1703311;83;21068;-82
2022/08/09 04:56:21;;;;;;;30.97;9.60;;;;;;;18.59;70.64;102465.43;1706122;83;21067;-83
2022/08/09 04:58:48;;;;;;;18.48;8.45;;;;;;;18.67;70.67;102468.24;1706534;83;21059;-83
2022/08/09 05:01:15;;;;;;;17.80;8.80;;;;;;;18.76;70.55;102464.41;1703166;83;21083;-82
2022/08/09 05:03:41;;;;;;;18.40;8.05;;;;;;;18.81;70.48;102467.66;1699072;83;21736;-83
2022/08/09 05:06:12;;;;;;;16.55;7.90;;;;;;;18.89;70.39;102462.91;1699251;83;21087;-83
2022/08/09 05:08:39;;;;;;;9.48;6.92;;;;;;;19.01;70.40;102470.70;1695015;82;21652;-83
2022/08/09 05:11:06;;;;;;;17.30;7.10;;;;;;;19.13;70.29;102472.67;1691640;83;21149;-83
2022/08/09 05:13:33;;;;;;;13.15;7.80;;;;;;;19.22;70.11;102474.17;1699220;83;21094;-83
2022/08/09 05:15:59;;;;;;;20.77;8.15;;;;;;;19.33;70.00;102472.09;1695212;83;21744;-84
2022/08/09 05:18:28;;;;;;;32.98;9.20;;;;;;;19.38;69.74;102475.75;1699834;83;21146;-84
2022/08/09 05:20:56;;;;;;;24.18;8.70;;;;;;;19.42;69.63;102473.58;1707058;83;21059;-84
2022/08/09 05:23:23;;;;;;;13.65;7.87;;;;;;;19.50;69.57;102479.05;1707223;83;21189;-84
2022/08/09 05:25:50;;;;;;;13.03;7.28;;;;;;;19.57;69.46;102482.27;1708094;82;21083;-82
2022/08/09 05:28:26;;;;;;;11.50;6.90;;;;;;;19.64;69.33;102481.95;1704468;82;21840;-83
2022/08/09 05:30:53;;;;;;;10.28;6.10;;;;;;;19.70;69.33;102485.59;1692596;83;21612;-81
2022/08/09 05:33:20;;;;;;;13.70;7.62;;;;;;;19.77;69.13;102485.29;1708371;83;21063;-83
2022/08/09 05:35:47;;;;;;;10.32;6.95;;;;;;;19.85;68.83;102486.28;1719412;82;21126;-83
2022/08/09 05:38:13;;;;;;;16.93;7.12;;;;;;;19.86;68.54;102484.09;1731968;82;21133;-83
2022/08/09 05:40:41;;;;;;;14.15;7.50;;;;;;;19.95;68.64;102484.63;1722190;81;22381;-83
2022/08/09 05:43:07;;;;;;;13.38;7.42;;;;;;;20.07;68.42;102487.94;1686527;83;21120;-90
2022/08/09 05:45:34;;;;;;;18.73;7.67;;;;;;;20.17;68.42;102490.73;1707077;83;21028;-83
2022/08/09 05:48:01;;;;;;;9.58;6.95;;;;;;;20.29;68.26;102486.00;1702147;83;21035;-91
2022/08/09 05:50:28;;;;;;;10.90;7.10;;;;;;;20.40;68.22;102487.44;1702093;83;21067;-89
2022/08/09 05:52:54;;;;;;;15.88;7.67;;;;;;;20.49;67.82;102486.66;1689122;83;21798;-84
2022/08/09 05:55:21;;;;;;;13.55;7.05;;;;;;;20.61;67.77;102488.19;1690386;82;21049;-84
2022/08/09 05:57:50;;;;;;;14.20;7.00;;;;;;;20.59;67.22;102446.66;1686696;83;21086;-90
2022/08/09 06:00:23;;;;;;;10.78;6.22;;;;;;;20.72;66.70;102461.52;1686073;84;21099;-90
2022/08/09 06:02:59;;;;;;;9.48;6.00;;;;;;;20.72;66.70;102461.52;1670974;84;21098;-84
2022/08/09 06:05:30;;;;;;;9.30;4.70;;;;;;;20.94;66.51;102469.33;1694214;83;21699;-90
2022/08/09 06:07:57;;;;;;;7.60;4.30;;;;;;;21.04;65.69;102483.69;1728452;82;21158;-84
2022/08/09 06:10:36;;;;;;;9.58;4.20;;;;;;;21.13;65.32;102487.37;1692534;84;21079;-84
2022/08/09 06:12:53;;;;;;;8.18;4.12;;;;;;;21.09;65.03;102456.08;1685073;83;21124;-90
2022/08/09 06:15:20;;;;;;;6.45;3.50;;;;;;;21.40;64.56;102482.20;1685795;83;21664;-90
2022/08/09 06:17:47;;;;;;;6.40;3.70;;;;;;;21.49;64.14;102489.93;1671233;83;21758;-84
2022/08/09 06:20:14;;;;;;;6.15;3.87;;;;;;;21.53;63.86;102497.55;1727854;82;21112;-84
2022/08/09 06:22:41;;;;;;;6.17;5.55;;;;;;;21.58;63.58;102498.45;1726801;82;21526;-92
2022/08/09 06:25:08;;;;;;;9.58;4.53;;;;;;;21.69;63.22;102497.20;1723856;82;21063;-90
2022/08/09 06:27:35;;;;;;;5.53;3.25;;;;;;;21.72;62.96;102503.48;1726166;82;21117;-91
2022/08/09 06:30:02;;;;;;;3.60;2.90;;;;;;;21.78;62.64;102491.02;1690818;84;21765;-92
2022/08/09 06:32:29;;;;;;;4.78;3.30;;;;;;;21.83;62.43;102494.17;1682919;84;21079;-92
2022/08/09 06:34:56;;;;;;;3.77;3.05;;;;;;;22.00;62.38;102496.95;1679924;84;21337;-91
2022/08/09 06:37:23;;;;;;;8.43;6.12;;;;;;;22.18;62.16;102503.28;1672044;84;21045;-84
2022/08/09 06:39:56;;;;;;;6.10;3.90;;;;;;;22.35;61.83;102502.94;1680485;83;21079;-91
2022/08/09 06:42:23;;;;;;;9.83;4.55;;;;;;;22.51;61.45;102504.80;1675357;85;22639;-91
2022/08/09 06:44:53;;;;;;;4.97;3.80;;;;;;;22.71;61.07;102503.94;1721098;82;21062;-84
2022/08/09 06:47:38;;;;;;;5.83;3.15;;;;;;;22.82;60.74;102508.00;1715910;82;21079;-91
2022/08/09 06:49:54;;;;;;;3.85;2.42;;;;;;;22.95;60.43;102504.44;1720312;82;21055;-84
2022/08/09 06:52:21;;;;;;;4.72;3.20;;;;;;;23.05;60.06;102504.95;1724029;82;21062;-85
2022/08/09 06:54:47;;;;;;;4.70;2.83;;;;;;;23.23;59.89;102509.88;1726345;81;22593;-83
2022/08/09 06:57:15;;;;;;;5.37;3.00;;;;;;;23.40;59.67;102504.50;1721354;82;21078;-90
2022/08/09 06:59:41;;;;;;;5.30;3.35;;;;;;;23.62;59.27;102512.11;1724224;82;21023;-90
2022/08/09 07:02:08;;;;;;;4.15;3.00;;;;;;;23.62;58.58;102508.08;1721880;82;21079;-90
2022/08/09 07:04:35;;;;;;;6.55;3.35;;;;;;;23.69;58.34;102512.55;1724556;82;21063;-90
2022/08/09 07:07:03;;;;;;;4.83;3.15;;;;;;;23.74;58.12;102512.07;1731697;82;21745;-91
2022/08/09 07:09:29;;;;;;;7.15;3.20;;;;;;;23.91;58.10;102509.84;1686746;84;21091;-83
2022/08/09 07:11:56;;;;;;;3.47;2.77;;;;;;;24.03;57.74;102515.20;1718480;82;22011;-91
2022/08/09 07:14:23;;;;;;;5.30;3.10;;;;;;;24.08;57.21;102513.82;1728223;82;21099;-85
2022/08/09 07:16:50;;;;;;;4.95;2.55;;;;;;;24.14;56.93;102516.05;1723373;82;20982;-92
2022/08/09 07:19:16;;;;;;;3.75;2.60;;;;;;;24.20;56.64;102512.45;1716389;82;21754;-92
2022/08/09 07:21:44;;;;;;;3.87;2.60;;;;;;;24.22;56.40;102516.91;1723430;82;21067;-83
2022/08/09 07:24:11;;;;;;;4.72;2.60;;;;;;;24.30;56.09;102515.53;1693304;83;21039;-84
2022/08/09 07:26:37;;;;;;;4.97;2.95;;;;;;;24.20;55.39;102517.37;1693637;82;21056;-93
2022/08/09 07:29:04;;;;;;;4.40;3.00;;;;;;;24.01;55.10;102523.72;1721193;82;21051;-83
2022/08/09 07:31:32;;;;;;;4.20;3.80;;;;;;;23.81;55.26;102527.80;1722301;82;21783;-81
2022/08/09 07:33:59;;;;;;;7.00;2.77;;;;;;;23.78;55.49;102523.30;1733544;82;21142;-82
2022/08/09 07:36:26;;;;;;;6.70;4.37;;;;;;;23.82;55.54;102536.32;1722096;82;21078;-92
2022/08/09 07:38:54;;;;;;;4.50;2.42;;;;;;;23.74;55.23;102533.58;1734351;82;21258;-83
2022/08/09 07:41:20;;;;;;;3.27;2.50;;;;;;;23.60;54.68;102531.37;1704980;84;21813;-94
2022/08/09 07:43:47;;;;;;;4.80;3.40;;;;;;;23.41;54.74;102531.38;1705918;84;21768;-94
2022/08/09 07:46:14;;;;;;;2.52;2.27;;;;;;;23.11;54.54;102531.37;1683735;83;21099;-90
2022/08/09 07:48:41;;;;;;;5.72;2.20;;;;;;;22.91;54.57;102533.08;1681049;83;21094;-81
2022/08/09 07:51:07;;;;;;;4.25;2.33;;;;;;;22.72;54.64;102535.28;1694186;83;21051;-82
2022/08/09 07:53:37;;;;;;;3.87;1.92;;;;;;;22.66;54.64;102536.16;1687094;84;36475;-83
2022/08/09 07:56:04;;;;;;;2.55;2.30;;;;;;;22.50;54.30;102538.33;1692768;84;21956;-80
2022/08/09 07:58:31;;;;;;;22.55;9.05;;;;;;;22.32;54.42;102537.37;1688054;83;21082;-82
2022/08/09 08:00:58;;;;;;;4.37;3.02;;;;;;;22.30;54.67;102531.55;1684063;83;21338;-82
2022/08/09 08:03:25;;;;;;;5.62;2.62;;;;;;;22.32;54.48;102536.03;1688122;84;21079;-81
2022/08/09 08:06:04;;;;;;;4.40;2.37;;;;;;;22.25;54.25;102531.94;1693981;83;21663;-91
2022/08/09 08:08:31;;;;;;;2.27;1.92;;;;;;;22.20;54.25;102534.58;1695185;83;21770;-83
2022/08/09 08:10:58;;;;;;;3.40;2.45;;;;;;;22.19;54.46;102532.80;1695944;83;21463;-83
2022/08/09 08:13:24;;;;;;;2.85;2.52;;;;;;;22.08;54.36;102530.51;1685717;84;21141;-84
2022/08/09 08:15:51;;;;;;;3.42;1.82;;;;;;;21.99;54.29;102531.80;1682672;83;21074;-84
2022/08/09 08:18:20;;;;;;;3.08;2.33;;;;;;;21.88;53.95;102527.24;1685331;83;21787;-92
2022/08/09 08:20:46;;;;;;;2.87;1.98;;;;;;;21.77;53.99;102534.31;1682354;83;21801;-91
2022/08/09 08:23:25;;;;;;;3.05;2.00;;;;;;;21.77;54.12;102524.94;1700540;84;21069;-90
2022/08/09 08:25:51;;;;;;;3.30;2.45;;;;;;;21.80;54.16;102522.28;1701408;84;21045;-90
2022/08/09 08:28:56;;;;;;;4.20;2.40;;;;;;;21.79;54.28;102522.27;1692893;84;21030;-91
2022/08/09 08:31:22;;;;;;;;;;;;;;;21.74;54.18;102519.13;1697643;83;21550;-84
2022/08/09 08:33:49;;;;;;;6.70;2.52;;;;;;;21.81;54.25;102522.76;1680031;84;21746;-84
2022/08/09 08:36:29;;;;;;;4.35;2.70;;;;;;;21.81;53.72;102526.78;1695885;83;21055;-89
2022/08/09 08:39:03;;;;;;;3.05;2.37;;;;;;;21.81;53.72;102526.78;1683376;84;21047;-88
2022/08/09 08:41:29;;;;;;;4.53;2.20;;;;;;;21.83;53.79;102513.36;1692754;84;21119;-84
2022/08/09 08:43:57;;;;;;;6.20;3.30;;;;;;;21.89;53.71;102516.09;1697845;83;21007;-84
2022/08/09 08:46:29;;;;;;;4.22;2.60;;;;;;;21.92;53.51;102513.42;1696893;84;21771;-84
2022/08/09 08:49:01;;;;;;;6.03;2.83;;;;;;;21.93;53.46;102513.43;1672358;84;21079;-86
2022/08/09 08:51:29;;;;;;;5.30;2.43;;;;;;;21.93;53.19;102505.39;1649313;86;21126;-89
2022/08/09 08:53:56;;;;;;;6.45;2.45;;;;;;;21.91;52.95;102513.88;1682729;84;21103;-84
2022/08/09 08:56:23;;;;;;;3.50;2.83;;;;;;;21.84;52.81;102509.80;1686731;84;21088;-90
2022/08/09 08:59:27;;;;;;;2.90;2.47;;;;;;;21.84;53.10;102503.10;1690579;83;21986;-90
2022/08/09 09:02:08;;;;;;;3.15;2.62;;;;;;;21.87;53.00;102507.16;1711562;83;21231;-91
2022/08/09 09:04:35;;;;;;;3.25;2.60;;;;;;;21.97;53.04;102506.76;1709688;83;21079;-84
2022/08/09 09:07:07;;;;;;;5.60;3.40;;;;;;;22.00;52.64;102512.12;1704147;83;21130;-84
2022/08/09 09:09:34;;;;;;;2.87;2.30;;;;;;;21.94;52.61;102511.64;1687061;83;21596;-83
2022/08/09 09:12:01;;;;;;;2.92;2.30;;;;;;;21.85;52.71;102516.52;1693836;83;22485;-83
2022/08/09 09:14:28;;;;;;;4.42;2.20;;;;;;;21.81;52.69;102516.05;1681360;83;21082;-83
2022/08/09 09:16:55;;;;;;;4.17;2.08;;;;;;;21.72;52.45;102512.86;1678272;84;21090;-84
2022/08/09 09:19:46;;;;;;;6.87;2.70;;;;;;;21.65;52.47;102516.83;1668747;85;21090;-89
2022/08/09 09:22:14;;;;;;;4.55;2.15;;;;;;;21.65;52.53;102520.84;1665171;85;21088;-85
2022/08/09 09:24:47;;;;;;;4.37;2.87;;;;;;;21.72;52.58;102527.60;1658876;83;23354;-84
2022/08/09 09:27:22;;;;;;;3.90;2.80;;;;;;;21.74;52.36;102523.59;1681952;83;21075;-86
2022/08/09 09:29:49;;;;;;;3.65;2.75;;;;;;;21.73;52.29;102521.37;1665497;85;22540;-82
2022/08/09 09:32:21;;;;;;;3.20;2.10;;;;;;;21.76;52.20;102523.16;1668485;85;21574;-83
2022/08/09 09:35:08;;;;;;;8.43;2.45;;;;;;;21.84;52.06;102510.69;1664168;84;21786;-83
2022/08/09 09:37:35;;;;;;;3.12;2.30;;;;;;;21.91;51.97;102512.98;1623250;86;21132;-84
2022/08/09 09:40:48;;;;;;;5.92;2.72;;;;;;;22.04;51.58;102514.84;1628434;86;21625;-90
2022/08/09 09:43:35;;;;;;;5.47;2.60;;;;;;;22.05;51.61;102523.32;1614258;86;21040;-91
2022/08/09 09:46:32;;;;;;;4.28;2.25;;;;;;;21.98;51.29;102521.52;1623996;86;21248;-90
2022/08/09 09:49:09;;;;;;;2.20;1.95;;;;;;;21.98;51.11;102520.59;1625137;87;21052;-89
2022/08/09 09:51:39;;;;;;;4.12;2.30;;;;;;;21.91;50.97;102521.02;1637713;86;21821;-84
2022/08/09 09:54:14;;;;;;;2.75;2.08;;;;;;;21.85;50.90;102531.27;1637805;86;21101;-85
2022/08/09 09:56:45;;;;;;;4.67;2.35;;;;;;;21.84;50.83;102525.89;1636923;86;21180;-90
2022/08/09 09:59:16;;;;;;;3.75;2.70;;;;;;;21.88;50.86;102524.56;1643017;86;21067;-90
2022/08/09 10:01:43;;;;;;;5.00;3.25;;;;;;;21.85;50.72;102525.02;1626731;86;21079;-91
2022/08/09 10:04:14;;;;;;;2.98;1.92;;;;;;;21.85;50.72;102515.64;1616672;86;21788;-85
2022/08/09 10:06:45;;;;;;;3.10;2.10;;;;;;;21.92;50.84;102529.08;1640514;86;21056;-85
2022/08/09 10:09:13;;;;;;;3.55;2.12;;;;;;;21.89;50.42;102518.33;1641096;86;21697;-92
2022/08/09 10:11:40;;;;;;;4.08;2.10;;;;;;;21.83;50.31;102512.94;1642893;86;21592;-85
2022/08/09 10:14:24;;;;;;;6.15;2.35;;;;;;;21.79;50.34;102516.49;1640146;85;21056;-91
2022/08/09 10:16:51;;;;;;;3.85;2.65;;;;;;;21.79;50.22;102519.59;1616128;87;21738;-84
2022/08/09 10:19:39;;;;;;;3.80;1.90;;;;;;;21.80;50.17;102515.59;1629848;87;21099;-93
2022/08/09 10:22:06;;;;;;;5.22;2.37;;;;;;;21.89;50.13;102512.08;1642362;85;21134;-91
2022/08/09 10:24:33;;;;;;;3.20;2.33;;;;;;;21.91;50.33;102504.48;1630292;86;21723;-91
2022/08/09 10:27:00;;;;;;;3.72;2.15;;;;;;;21.98;50.16;102519.26;1639408;86;21107;-91
2022/08/09 10:29:26;;;;;;;4.65;2.10;;;;;;;21.93;50.27;102508.06;1640749;86;21789;-83
2022/08/09 10:31:54;;;;;;;4.28;2.20;;;;;;;21.99;50.19;102520.61;1631235;86;21099;-91
2022/08/09 10:34:21;;;;;;;7.87;2.15;;;;;;;21.97;49.85;102522.84;1614211;87;21037;-84
2022/08/09 10:36:55;;;;;;;2.42;2.10;;;;;;;21.97;49.91;102518.83;1637605;85;21080;-86
2022/08/09 10:39:20;;;;;;;2.42;1.90;;;;;;;21.95;49.74;102513.45;1650282;85;21071;-92
2022/08/09 10:41:46;;;;;;;4.10;2.25;;;;;;;22.01;49.77;102518.84;1664989;85;21782;-84
2022/08/09 10:44:15;;;;;;;3.05;2.10;;;;;;;22.05;49.61;102518.41;1691127;82;21063;-83
2022/08/09 10:46:47;;;;;;;2.83;1.95;;;;;;;22.03;49.50;102522.42;1675623;83;21048;-91
2022/08/09 10:49:42;;;;;;;2.12;1.80;;;;;;;22.05;49.44;102524.66;1668351;85;21568;-85
2022/08/09 10:52:41;;;;;;;3.90;2.40;;;;;;;22.01;49.44;102517.49;1661696;85;21066;-92
2022/08/09 10:55:26;;;;;;;2.98;2.50;;;;;;;22.02;49.59;102516.62;1667156;84;21776;-83
2022/08/09 10:58:08;;;;;;;2.47;2.20;;;;;;;22.05;49.60;102523.77;1708236;82;21060;-93
2022/08/09 11:00:41;;;;;;;2.67;1.75;;;;;;;22.00;49.55;102522.84;1704044;82;21679;-85
2022/08/09 11:03:25;;;;;;;3.35;2.55;;;;;;;21.99;49.49;102522.41;1700249;82;21176;-84
2022/08/09 11:06:17;;;;;;;5.12;2.05;;;;;;;21.98;49.29;102517.92;1659463;85;21595;-84
2022/08/09 11:08:45;;;;;;;6.00;2.25;;;;;;;22.01;49.11;102519.29;1652508;85;21821;-91
2022/08/09 11:11:12;;;;;;;3.02;2.10;;;;;;;21.99;49.00;102511.69;1658396;85;21055;-91
2022/08/09 11:13:39;;;;;;;6.12;1.92;;;;;;;21.99;48.89;102513.02;1660262;85;21094;-93
2022/08/09 11:16:36;;;;;;;2.60;1.87;;;;;;;21.99;48.99;102519.73;1648996;86;21143;-91
2022/08/09 11:19:06;;;;;;;3.65;2.30;;;;;;;22.01;49.19;102523.31;1702941;82;21071;-91
2022/08/09 11:21:55;;;;;;;4.25;2.00;;;;;;;22.07;49.25;102502.80;1718578;82;21803;-84
2022/08/09 11:24:22;;;;;;;3.37;2.22;;;;;;;22.15;49.22;102508.20;1710442;82;21043;-83
2022/08/09 11:26:56;;;;;;;5.20;2.60;;;;;;;22.17;48.85;102511.78;1703683;82;21108;-91
2022/08/09 11:29:54;;;;;;;3.70;2.42;;;;;;;22.14;48.76;102504.59;1690288;82;21032;-84
2022/08/09 11:32:49;;;;;;;3.27;1.80;;;;;;;22.16;48.57;102508.64;1668599;83;21063;-92
2022/08/09 11:35:45;;;;;;;3.25;2.02;;;;;;;22.17;48.66;102507.77;1667620;84;21827;-92
2022/08/09 11:38:28;;;;;;;4.37;2.20;;;;;;;22.24;48.63;102506.91;1713553;82;21099;-83
2022/08/09 11:40:56;;;;;;;4.40;2.95;;;;;;;22.28;48.30;102503.80;1716951;83;21169;-90
2022/08/09 11:43:31;;;;;;;4.53;2.72;;;;;;;22.23;48.32;102506.44;1713653;81;21075;-85
2022/08/09 11:45:59;;;;;;;3.58;1.87;;;;;;;22.27;48.19;102499.34;1711714;81;21083;-83
2022/08/09 11:48:51;;;;;;;4.65;2.50;;;;;;;22.33;48.32;102504.72;1710602;81;21798;-83
2022/08/09 11:51:20;;;;;;;4.78;2.10;;;;;;;22.35;48.37;102498.03;1705451;82;21569;-89
2022/08/09 11:53:48;;;;;;;3.22;1.90;;;;;;;22.47;48.21;102498.97;1706179;82;21098;-83
2022/08/09 11:56:29;;;;;;;3.08;1.90;;;;;;;22.51;48.04;102498.54;1715654;82;21074;-89
2022/08/09 11:58:59;;;;;;;2.67;2.20;;;;;;;22.47;47.81;102505.68;1718892;82;21058;-90
2022/08/09 12:01:41;;;;;;;3.65;1.95;;;;;;;22.38;47.80;102498.05;1719592;82;21788;-90
2022/08/09 12:04:11;;;;;;;3.33;2.02;;;;;;;22.36;47.99;102495.81;1720009;82;21091;-91
2022/08/09 12:06:38;;;;;;;3.17;1.90;;;;;;;22.41;47.89;102496.70;1729492;81;21452;-91
2022/08/09 12:09:08;;;;;;;2.52;2.10;;;;;;;22.40;47.93;102507.00;1724802;81;21687;-90